sensor_id;sensor_type;location;lat;lon;timestamp;pressure;altitude;pressure_sealevel;temperature;humidity
72857;BME280;62742;52.136;4.500;2023-04-26T00:01:02;102059.47;;;4.74;80.55
72857;BME280;62742;52.136;4.500;2023-04-26T00:03:31;102057.59;;;4.68;80.57
72857;BME280;62742;52.136;4.500;2023-04-26T00:05:58;102060.78;;;4.59;81.00
72857;BME280;62742;52.136;4.500;2023-04-26T00:08:30;102064.00;;;4.50;81.84
72857;BME280;62742;52.136;4.500;2023-04-26T00:10:56;102061.97;;;4.40;82.75
72857;BME280;62742;52.136;4.500;2023-04-26T00:13:22;102059.31;;;4.39;83.07
72857;BME280;62742;52.136;4.500;2023-04-26T00:15:48;102057.66;;;4.41;83.66
72857;BME280;62742;52.136;4.500;2023-04-26T00:18:15;102060.13;;;4.36;83.92
72857;BME280;62742;52.136;4.500;2023-04-26T00:20:42;102060.75;;;4.27;82.97
72857;BME280;62742;52.136;4.500;2023-04-26T00:23:09;102063.00;;;4.17;83.19
72857;BME280;62742;52.136;4.500;2023-04-26T00:25:36;102063.75;;;4.12;84.11
72857;BME280;62742;52.136;4.500;2023-04-26T00:28:02;102062.00;;;4.13;84.62
72857;BME280;62742;52.136;4.500;2023-04-26T00:30:28;102063.69;;;4.11;84.09
72857;BME280;62742;52.136;4.500;2023-04-26T00:32:55;102064.56;;;4.11;84.78
72857;BME280;62742;52.136;4.500;2023-04-26T00:35:21;102060.19;;;4.09;84.52
72857;BME280;62742;52.136;4.500;2023-04-26T00:37:47;102057.53;;;4.07;84.29
72857;BME280;62742;52.136;4.500;2023-04-26T00:40:13;102066.41;;;4.14;84.39
72857;BME280;62742;52.136;4.500;2023-04-26T00:42:41;102064.56;;;4.11;83.42
72857;BME280;62742;52.136;4.500;2023-04-26T00:45:08;102062.31;;;3.93;83.30
72857;BME280;62742;52.136;4.500;2023-04-26T00:47:34;102060.72;;;3.99;84.27
72857;BME280;62742;52.136;4.500;2023-04-26T00:50:01;102057.81;;;3.89;84.53
72857;BME280;62742;52.136;4.500;2023-04-26T00:52:28;102061.06;;;3.82;83.51
72857;BME280;62742;52.136;4.500;2023-04-26T00:54:55;102057.31;;;3.72;84.41
72857;BME280;62742;52.136;4.500;2023-04-26T00:57:22;102055.44;;;3.68;85.03
72857;BME280;62742;52.136;4.500;2023-04-26T00:59:48;102053.63;;;3.66;85.22
72857;BME280;62742;52.136;4.500;2023-04-26T01:02:14;102052.72;;;3.65;85.53
72857;BME280;62742;52.136;4.500;2023-04-26T01:04:40;102057.03;;;3.65;85.67
72857;BME280;62742;52.136;4.500;2023-04-26T01:07:07;102057.88;;;3.64;85.89
72857;BME280;62742;52.136;4.500;2023-04-26T01:09:33;102054.97;;;3.54;85.58
72857;BME280;62742;52.136;4.500;2023-04-26T01:11:59;102056.59;;;3.51;85.37
72857;BME280;62742;52.136;4.500;2023-04-26T01:14:26;102061.75;;;3.49;86.01
72857;BME280;62742;52.136;4.500;2023-04-26T01:16:54;102052.53;;;3.59;86.06
72857;BME280;62742;52.136;4.500;2023-04-26T01:19:22;102049.88;;;3.58;85.20
72857;BME280;62742;52.136;4.500;2023-04-26T01:21:48;102059.03;;;3.46;85.30
72857;BME280;62742;52.136;4.500;2023-04-26T01:24:14;102058.63;;;3.34;85.56
72857;BME280;62742;52.136;4.500;2023-04-26T01:26:41;102054.94;;;3.27;86.13
72857;BME280;62742;52.136;4.500;2023-04-26T01:29:20;102054.81;;;3.24;86.36
72857;BME280;62742;52.136;4.500;2023-04-26T01:31:48;102055.63;;;3.22;86.36
72857;BME280;62742;52.136;4.500;2023-04-26T01:34:15;102060.13;;;3.27;86.35
72857;BME280;62742;52.136;4.500;2023-04-26T01:36:41;102051.41;;;3.25;86.36
72857;BME280;62742;52.136;4.500;2023-04-26T01:39:08;102056.38;;;3.19;85.96
72857;BME280;62742;52.136;4.500;2023-04-26T01:41:35;102052.00;;;3.16;86.20
72857;BME280;62742;52.136;4.500;2023-04-26T01:44:01;102054.69;;;3.20;86.13
72857;BME280;62742;52.136;4.500;2023-04-26T01:46:27;102055.50;;;3.18;85.94
72857;BME280;62742;52.136;4.500;2023-04-26T01:48:53;102055.22;;;3.09;86.01
72857;BME280;62742;52.136;4.500;2023-04-26T01:51:20;102055.22;;;3.09;85.96
72857;BME280;62742;52.136;4.500;2023-04-26T01:53:46;102056.94;;;3.10;85.49
72857;BME280;62742;52.136;4.500;2023-04-26T01:56:12;102061.84;;;3.01;85.33
72857;BME280;62742;52.136;4.500;2023-04-26T01:58:38;102052.88;;;2.93;85.64
72857;BME280;62742;52.136;4.500;2023-04-26T02:01:05;102065.81;;;2.91;86.31
72857;BME280;62742;52.136;4.500;2023-04-26T02:03:33;102057.97;;;2.90;87.37
72857;BME280;62742;52.136;4.500;2023-04-26T02:06:00;102057.97;;;2.90;87.40
72857;BME280;62742;52.136;4.500;2023-04-26T02:08:26;102047.63;;;2.91;87.17
72857;BME280;62742;52.136;4.500;2023-04-26T02:10:52;102050.41;;;2.96;87.57
72857;BME280;62742;52.136;4.500;2023-04-26T02:13:19;102051.13;;;2.92;87.37
72857;BME280;62742;52.136;4.500;2023-04-26T02:15:45;102054.56;;;2.91;87.97
72857;BME280;62742;52.136;4.500;2023-04-26T02:18:12;102050.53;;;2.99;87.97
72857;BME280;62742;52.136;4.500;2023-04-26T02:20:42;102054.97;;;3.03;88.16
72857;BME280;62742;52.136;4.500;2023-04-26T02:23:10;102052.44;;;3.05;88.06
72857;BME280;62742;52.136;4.500;2023-04-26T02:25:37;102056.75;;;3.04;87.68
72857;BME280;62742;52.136;4.500;2023-04-26T02:28:04;102054.69;;;2.95;87.25
72857;BME280;62742;52.136;4.500;2023-04-26T02:30:31;102055.53;;;2.94;87.96
72857;BME280;62742;52.136;4.500;2023-04-26T02:32:57;102054.75;;;2.97;87.68
72857;BME280;62742;52.136;4.500;2023-04-26T02:35:24;102053.75;;;2.93;87.88
72857;BME280;62742;52.136;4.500;2023-04-26T02:37:51;102053.72;;;2.92;87.09
72857;BME280;62742;52.136;4.500;2023-04-26T02:40:17;102056.31;;;2.92;87.23
72857;BME280;62742;52.136;4.500;2023-04-26T02:42:44;102047.63;;;2.91;87.79
72857;BME280;62742;52.136;4.500;2023-04-26T02:45:11;102044.19;;;2.91;87.58
72857;BME280;62742;52.136;4.500;2023-04-26T02:47:37;102054.13;;;2.78;87.14
72857;BME280;62742;52.136;4.500;2023-04-26T02:50:04;102053.03;;;2.72;87.91
72857;BME280;62742;52.136;4.500;2023-04-26T02:52:32;102047.97;;;2.76;88.36
72857;BME280;62742;52.136;4.500;2023-04-26T02:54:59;102045.38;;;2.76;88.21
72857;BME280;62742;52.136;4.500;2023-04-26T02:57:29;102047.16;;;2.77;88.06
72857;BME280;62742;52.136;4.500;2023-04-26T02:59:56;102045.38;;;2.76;87.73
72857;BME280;62742;52.136;4.500;2023-04-26T03:02:23;102040.41;;;2.83;87.56
72857;BME280;62742;52.136;4.500;2023-04-26T03:04:49;102034.22;;;2.79;88.41
72857;BME280;62742;52.136;4.500;2023-04-26T03:07:15;102037.66;;;2.78;87.90
72857;BME280;62742;52.136;4.500;2023-04-26T03:09:42;102041.72;;;2.71;88.85
72857;BME280;62742;52.136;4.500;2023-04-26T03:12:08;102042.63;;;2.72;89.09
72857;BME280;62742;52.136;4.500;2023-04-26T03:14:34;102039.06;;;2.70;89.01
72857;BME280;62742;52.136;4.500;2023-04-26T03:17:01;102039.88;;;2.67;89.02
72857;BME280;62742;52.136;4.500;2023-04-26T03:19:28;102044.25;;;2.68;89.17
72857;BME280;62742;52.136;4.500;2023-04-26T03:21:55;102040.75;;;2.68;88.28
72857;BME280;62742;52.136;4.500;2023-04-26T03:24:21;102043.19;;;2.63;88.37
72857;BME280;62742;52.136;4.500;2023-04-26T03:26:48;102039.63;;;2.61;88.27
72857;BME280;62742;52.136;4.500;2023-04-26T03:29:15;102038.94;;;2.65;88.96
72857;BME280;62742;52.136;4.500;2023-04-26T03:31:42;102034.91;;;2.73;88.71
72857;BME280;62742;52.136;4.500;2023-04-26T03:34:08;102038.44;;;2.75;88.81
72857;BME280;62742;52.136;4.500;2023-04-26T03:36:34;102029.75;;;2.75;89.38
72857;BME280;62742;52.136;4.500;2023-04-26T03:39:00;102027.16;;;2.75;89.38
72857;BME280;62742;52.136;4.500;2023-04-26T03:41:27;102028.88;;;2.74;89.88
72857;BME280;62742;52.136;4.500;2023-04-26T03:43:53;102028.06;;;2.75;88.99
72857;BME280;62742;52.136;4.500;2023-04-26T03:46:19;102027.81;;;2.69;89.39
72857;BME280;62742;52.136;4.500;2023-04-26T03:48:45;102027.72;;;2.66;89.39
72857;BME280;62742;52.136;4.500;2023-04-26T03:51:11;102023.47;;;2.68;88.95
72857;BME280;62742;52.136;4.500;2023-04-26T03:53:37;102022.38;;;2.61;88.72
72857;BME280;62742;52.136;4.500;2023-04-26T03:56:04;102016.16;;;2.58;88.85
72857;BME280;62742;52.136;4.500;2023-04-26T03:58:30;102013.47;;;2.55;88.36
72857;BME280;62742;52.136;4.500;2023-04-26T04:00:56;102018.44;;;2.49;88.14
72857;BME280;62742;52.136;4.500;2023-04-26T04:03:26;102015.91;;;2.50;87.95
72857;BME280;62742;52.136;4.500;2023-04-26T04:05:54;102009.59;;;2.43;88.62
72857;BME280;62742;52.136;4.500;2023-04-26T04:08:21;102018.19;;;2.42;89.15
72857;BME280;62742;52.136;4.500;2023-04-26T04:10:47;102019.16;;;2.45;88.77
72857;BME280;62742;52.136;4.500;2023-04-26T04:13:13;102019.00;;;2.40;88.98
72857;BME280;62742;52.136;4.500;2023-04-26T04:15:39;102021.59;;;2.40;89.36
72857;BME280;62742;52.136;4.500;2023-04-26T04:18:06;102023.38;;;2.42;89.74
72857;BME280;62742;52.136;4.500;2023-04-26T04:20:32;102025.97;;;2.41;89.32
72857;BME280;62742;52.136;4.500;2023-04-26T04:22:58;102029.13;;;2.34;88.43
72857;BME280;62742;52.136;4.500;2023-04-26T04:25:24;102022.13;;;2.31;88.67
72857;BME280;62742;52.136;4.500;2023-04-26T04:27:51;102024.91;;;2.36;89.26
72857;BME280;62742;52.136;4.500;2023-04-26T04:30:18;102026.94;;;2.45;89.82
72857;BME280;62742;52.136;4.500;2023-04-26T04:32:45;102027.88;;;2.47;89.06
72857;BME280;62742;52.136;4.500;2023-04-26T04:35:11;102031.16;;;2.41;88.93
72857;BME280;62742;52.136;4.500;2023-04-26T04:37:40;102031.16;;;2.42;89.15
72857;BME280;62742;52.136;4.500;2023-04-26T04:40:06;102028.53;;;2.41;89.16
72857;BME280;62742;52.136;4.500;2023-04-26T04:42:38;102036.41;;;2.44;89.20
72857;BME280;62742;52.136;4.500;2023-04-26T04:45:04;102041.78;;;2.49;89.30
72857;BME280;62742;52.136;4.500;2023-04-26T04:47:31;102039.97;;;2.46;88.25
72857;BME280;62742;52.136;4.500;2023-04-26T04:49:58;102033.72;;;2.41;88.60
72857;BME280;62742;52.136;4.500;2023-04-26T04:52:25;102036.53;;;2.47;88.96
72857;BME280;62742;52.136;4.500;2023-04-26T04:54:51;102034.25;;;2.55;88.92
72857;BME280;62742;52.136;4.500;2023-04-26T04:57:17;102037.66;;;2.54;89.01
72857;BME280;62742;52.136;4.500;2023-04-26T04:59:43;102033.44;;;2.57;88.84
72857;BME280;62742;52.136;4.500;2023-04-26T05:02:10;102034.56;;;2.64;89.11
72857;BME280;62742;52.136;4.500;2023-04-26T05:04:36;102039.00;;;2.67;88.71
72857;BME280;62742;52.136;4.500;2023-04-26T05:07:02;102038.56;;;2.80;88.92
72857;BME280;62742;52.136;4.500;2023-04-26T05:09:29;102033.69;;;2.88;88.25
72857;BME280;62742;52.136;4.500;2023-04-26T05:11:55;102034.66;;;2.91;88.63
72857;BME280;62742;52.136;4.500;2023-04-26T05:14:21;102037.44;;;2.96;90.27
72857;BME280;62742;52.136;4.500;2023-04-26T05:16:47;102040.03;;;2.96;92.30
72857;BME280;62742;52.136;4.500;2023-04-26T05:19:14;102039.47;;;3.30;91.14
72857;BME280;62742;52.136;4.500;2023-04-26T05:21:40;102041.47;;;3.39;90.50
72857;BME280;62742;52.136;4.500;2023-04-26T05:24:06;102034.50;;;3.38;91.01
72857;BME280;62742;52.136;4.500;2023-04-26T05:26:33;102042.22;;;3.35;90.94
72857;BME280;62742;52.136;4.500;2023-04-26T05:29:00;102040.94;;;3.49;91.47
72857;BME280;62742;52.136;4.500;2023-04-26T05:31:26;102040.31;;;3.56;91.17
72857;BME280;62742;52.136;4.500;2023-04-26T05:33:52;102038.09;;;3.69;91.68
72857;BME280;62742;52.136;4.500;2023-04-26T05:36:18;102044.34;;;3.74;91.66
72857;BME280;62742;52.136;4.500;2023-04-26T05:38:46;102043.78;;;3.84;92.05
72857;BME280;62742;52.136;4.500;2023-04-26T05:41:13;102047.25;;;4.41;88.82
72857;BME280;62742;52.136;4.500;2023-04-26T05:43:39;102057.22;;;4.25;89.54
72857;BME280;62742;52.136;4.500;2023-04-26T05:46:05;102050.22;;;4.24;90.46
72857;BME280;62742;52.136;4.500;2023-04-26T05:48:32;102049.81;;;4.39;90.79
72857;BME280;62742;52.136;4.500;2023-04-26T05:50:58;102049.63;;;4.63;90.34
72857;BME280;62742;52.136;4.500;2023-04-26T05:53:24;102050.59;;;4.67;92.16
72857;BME280;62742;52.136;4.500;2023-04-26T05:55:50;102056.88;;;4.74;91.41
72857;BME280;62742;52.136;4.500;2023-04-26T05:58:17;102049.38;;;5.18;90.48
72857;BME280;62742;52.136;4.500;2023-04-26T06:00:43;102056.69;;;5.31;90.54
72857;BME280;62742;52.136;4.500;2023-04-26T06:03:09;102048.47;;;5.51;88.53
72857;BME280;62742;52.136;4.500;2023-04-26T06:05:36;102049.47;;;5.56;85.26
72857;BME280;62742;52.136;4.500;2023-04-26T06:08:03;102053.19;;;6.02;86.85
72857;BME280;62742;52.136;4.500;2023-04-26T06:10:30;102052.09;;;6.32;86.50
72857;BME280;62742;52.136;4.500;2023-04-26T06:12:56;102066.50;;;6.55;83.47
72857;BME280;62742;52.136;4.500;2023-04-26T06:15:23;102065.09;;;6.70;83.06
72857;BME280;62742;52.136;4.500;2023-04-26T06:17:49;102064.31;;;6.76;80.88
72857;BME280;62742;52.136;4.500;2023-04-26T06:20:15;102070.97;;;7.04;80.68
72857;BME280;62742;52.136;4.500;2023-04-26T06:22:41;102069.88;;;7.40;80.68
72857;BME280;62742;52.136;4.500;2023-04-26T06:25:08;102070.84;;;7.45;78.59
72857;BME280;62742;52.136;4.500;2023-04-26T06:27:34;102064.72;;;7.46;77.92
72857;BME280;62742;52.136;4.500;2023-04-26T06:30:00;102079.47;;;7.41;76.42
72857;BME280;62742;52.136;4.500;2023-04-26T06:32:26;102076.53;;;7.22;77.55
72857;BME280;62742;52.136;4.500;2023-04-26T06:34:53;102080.56;;;7.05;78.19
72857;BME280;62742;52.136;4.500;2023-04-26T06:37:19;102085.31;;;6.80;78.37
72857;BME280;62742;52.136;4.500;2023-04-26T06:39:46;102092.16;;;6.32;77.93
72857;BME280;62742;52.136;4.500;2023-04-26T06:42:12;102096.41;;;6.29;78.09
72857;BME280;62742;52.136;4.500;2023-04-26T06:44:38;102095.44;;;6.24;79.47
72857;BME280;62742;52.136;4.500;2023-04-26T06:47:04;102090.81;;;6.12;80.17
72857;BME280;62742;52.136;4.500;2023-04-26T06:49:34;102087.28;;;5.75;81.64
72857;BME280;62742;52.136;4.500;2023-04-26T06:52:00;102086.91;;;5.94;82.22
72857;BME280;62742;52.136;4.500;2023-04-26T06:54:27;102083.75;;;6.08;83.66
72857;BME280;62742;52.136;4.500;2023-04-26T06:56:54;102081.41;;;6.18;84.15
72857;BME280;62742;52.136;4.500;2023-04-26T06:59:21;102074.47;;;6.21;83.19
72857;BME280;62742;52.136;4.500;2023-04-26T07:01:47;102068.06;;;6.46;78.81
72857;BME280;62742;52.136;4.500;2023-04-26T07:04:13;102072.50;;;6.10;80.60
72857;BME280;62742;52.136;4.500;2023-04-26T07:06:41;102078.34;;;6.38;80.68
72857;BME280;62742;52.136;4.500;2023-04-26T07:09:07;102074.00;;;6.39;81.40
72857;BME280;62742;52.136;4.500;2023-04-26T07:11:34;102075.06;;;6.48;81.16
72857;BME280;62742;52.136;4.500;2023-04-26T07:14:01;102081.44;;;6.61;81.77
72857;BME280;62742;52.136;4.500;2023-04-26T07:16:27;102077.41;;;6.77;81.36
72857;BME280;62742;52.136;4.500;2023-04-26T07:18:54;102085.94;;;7.13;78.32
72857;BME280;62742;52.136;4.500;2023-04-26T07:21:23;102088.13;;;7.37;77.02
72857;BME280;62742;52.136;4.500;2023-04-26T07:23:54;102084.56;;;7.33;75.40
72857;BME280;62742;52.136;4.500;2023-04-26T07:26:21;102083.78;;;7.39;79.76
72857;BME280;62742;52.136;4.500;2023-04-26T07:28:51;102092.66;;;7.47;80.18
72857;BME280;62742;52.136;4.500;2023-04-26T07:31:20;102088.34;;;7.49;77.79
72857;BME280;62742;52.136;4.500;2023-04-26T07:33:47;102089.38;;;7.59;73.36
72857;BME280;62742;52.136;4.500;2023-04-26T07:36:13;102085.88;;;7.60;71.74
72857;BME280;62742;52.136;4.500;2023-04-26T07:38:39;102083.22;;;7.55;72.57
72857;BME280;62742;52.136;4.500;2023-04-26T07:41:06;102090.06;;;7.48;74.25
72857;BME280;62742;52.136;4.500;2023-04-26T07:43:32;102088.75;;;7.75;73.95
72857;BME280;62742;52.136;4.500;2023-04-26T07:45:59;102093.53;;;8.02;69.32
72857;BME280;62742;52.136;4.500;2023-04-26T07:48:28;102090.00;;;7.99;71.14
72857;BME280;62742;52.136;4.500;2023-04-26T07:50:54;102089.13;;;7.98;74.14
72857;BME280;62742;52.136;4.500;2023-04-26T07:53:21;102097.28;;;8.17;70.40
72857;BME280;62742;52.136;4.500;2023-04-26T07:55:48;102093.88;;;8.24;73.34
72857;BME280;62742;52.136;4.500;2023-04-26T07:58:16;102094.44;;;8.64;66.72
72857;BME280;62742;52.136;4.500;2023-04-26T08:00:44;102084.66;;;8.49;68.11
72857;BME280;62742;52.136;4.500;2023-04-26T08:03:12;102091.94;;;8.73;68.79
72857;BME280;62742;52.136;4.500;2023-04-26T08:05:40;102099.81;;;8.73;68.82
72857;BME280;62742;52.136;4.500;2023-04-26T08:08:06;102093.72;;;8.77;65.81
72857;BME280;62742;52.136;4.500;2023-04-26T08:10:32;102101.78;;;8.93;66.41
72857;BME280;62742;52.136;4.500;2023-04-26T08:12:59;102096.53;;;8.93;66.90
72857;BME280;62742;52.136;4.500;2023-04-26T08:15:28;102094.06;;;9.04;68.90
72857;BME280;62742;52.136;4.500;2023-04-26T08:17:54;102089.19;;;9.44;66.54
72857;BME280;62742;52.136;4.500;2023-04-26T08:20:21;102092.94;;;9.70;63.54
72857;BME280;62742;52.136;4.500;2023-04-26T08:22:47;102088.78;;;10.02;62.18
72857;BME280;62742;52.136;4.500;2023-04-26T08:25:13;102093.69;;;9.55;60.34
72857;BME280;62742;52.136;4.500;2023-04-26T08:27:40;102092.16;;;9.82;62.12
72857;BME280;62742;52.136;4.500;2023-04-26T08:30:07;102086.13;;;9.99;60.77
72857;BME280;62742;52.136;4.500;2023-04-26T08:32:33;102095.63;;;9.80;63.72
72857;BME280;62742;52.136;4.500;2023-04-26T08:35:00;102089.59;;;9.91;62.73
72857;BME280;62742;52.136;4.500;2023-04-26T08:37:27;102083.69;;;10.23;60.08
72857;BME280;62742;52.136;4.500;2023-04-26T08:39:54;102084.50;;;10.18;59.69
72857;BME280;62742;52.136;4.500;2023-04-26T08:42:20;102088.78;;;10.02;59.81
72857;BME280;62742;52.136;4.500;2023-04-26T08:44:52;102087.00;;;9.95;61.86
72857;BME280;62742;52.136;4.500;2023-04-26T08:47:28;102086.69;;;9.58;60.32
72857;BME280;62742;52.136;4.500;2023-04-26T08:50:09;102096.00;;;9.25;61.14
72857;BME280;62742;52.136;4.500;2023-04-26T08:52:37;102091.69;;;9.30;62.24
72857;BME280;62742;52.136;4.500;2023-04-26T08:55:06;102090.94;;;9.42;60.48
72857;BME280;62742;52.136;4.500;2023-04-26T08:57:35;102095.00;;;9.13;61.10
72857;BME280;62742;52.136;4.500;2023-04-26T09:00:03;102087.00;;;9.01;59.61
72857;BME280;62742;52.136;4.500;2023-04-26T09:02:30;102101.84;;;8.99;60.48
72857;BME280;62742;52.136;4.500;2023-04-26T09:04:57;102088.78;;;9.05;60.13
72857;BME280;62742;52.136;4.500;2023-04-26T09:07:30;102097.00;;;9.38;60.62
72857;BME280;62742;52.136;4.500;2023-04-26T09:09:58;102088.97;;;9.22;59.56
72857;BME280;62742;52.136;4.500;2023-04-26T09:12:25;102096.22;;;9.49;59.71
72857;BME280;62742;52.136;4.500;2023-04-26T09:14:52;102093.69;;;9.55;59.58
72857;BME280;62742;52.136;4.500;2023-04-26T09:17:25;102092.81;;;9.58;60.36
72857;BME280;62742;52.136;4.500;2023-04-26T09:19:57;102097.13;;;9.48;56.41
72857;BME280;62742;52.136;4.500;2023-04-26T09:22:31;102087.81;;;9.87;58.40
72857;BME280;62742;52.136;4.500;2023-04-26T09:24:58;102093.31;;;10.24;60.21
72857;BME280;62742;52.136;4.500;2023-04-26T09:27:32;102090.63;;;10.14;55.84
72857;BME280;62742;52.136;4.500;2023-04-26T09:30:05;102089.59;;;9.91;54.92
72857;BME280;62742;52.136;4.500;2023-04-26T09:35:17;102090.53;;;10.00;55.40
72857;BME280;62742;52.136;4.500;2023-04-26T09:37:55;102095.16;;;10.36;55.12
72857;BME280;62742;52.136;4.500;2023-04-26T09:40:24;102090.09;;;10.81;54.76
72857;BME280;62742;52.136;4.500;2023-04-26T09:42:55;102091.03;;;10.92;54.25
72857;BME280;62742;52.136;4.500;2023-04-26T09:45:26;102083.19;;;11.08;52.55
72857;BME280;62742;52.136;4.500;2023-04-26T09:47:54;102084.97;;;11.29;52.82
72857;BME280;62742;52.136;4.500;2023-04-26T09:50:30;102072.69;;;11.49;50.28
72857;BME280;62742;52.136;4.500;2023-04-26T09:52:56;102077.06;;;11.30;50.56
72857;BME280;62742;52.136;4.500;2023-04-26T09:55:28;102068.31;;;11.44;49.33
72857;BME280;62742;52.136;4.500;2023-04-26T09:57:56;102067.44;;;11.63;44.27
72857;BME280;62742;52.136;4.500;2023-04-26T10:00:26;102081.47;;;11.87;49.95
72857;BME280;62742;52.136;4.500;2023-04-26T10:02:53;102072.63;;;12.29;47.24
72857;BME280;62742;52.136;4.500;2023-04-26T10:05:20;102065.13;;;13.35;42.32
72857;BME280;62742;52.136;4.500;2023-04-26T10:07:47;102068.25;;;13.80;41.95
72857;BME280;62742;52.136;4.500;2023-04-26T10:10:14;102067.34;;;13.82;41.26
72857;BME280;62742;52.136;4.500;2023-04-26T10:12:42;102063.78;;;13.85;42.22
72857;BME280;62742;52.136;4.500;2023-04-26T10:15:09;102062.69;;;14.09;44.87
72857;BME280;62742;52.136;4.500;2023-04-26T10:17:38;102065.09;;;13.36;44.68
72857;BME280;62742;52.136;4.500;2023-04-26T10:20:05;102072.53;;;12.60;45.22
72857;BME280;62742;52.136;4.500;2023-04-26T10:22:43;102075.28;;;12.34;45.86
72857;BME280;62742;52.136;4.500;2023-04-26T10:25:15;102077.03;;;12.32;47.17
72857;BME280;62742;52.136;4.500;2023-04-26T10:30:09;102072.63;;;12.37;48.40
72857;BME280;62742;52.136;4.500;2023-04-26T10:35:18;102060.19;;;12.71;45.71
72857;BME280;62742;52.136;4.500;2023-04-26T10:38:28;102064.13;;;13.48;44.83
72857;BME280;62742;52.136;4.500;2023-04-26T10:40:36;102062.09;;;13.78;47.67
72857;BME280;62742;52.136;4.500;2023-04-26T10:45:37;102058.59;;;13.76;46.22
72857;BME280;62742;52.136;4.500;2023-04-26T10:48:17;102060.56;;;13.51;47.78
72857;BME280;62742;52.136;4.500;2023-04-26T10:51:06;102063.66;;;12.83;47.46
72857;BME280;62742;52.136;4.500;2023-04-26T10:59:06;102062.91;;;12.53;48.14
72857;BME280;62742;52.136;4.500;2023-04-26T11:01:33;102066.56;;;12.04;48.17
72857;BME280;62742;52.136;4.500;2023-04-26T11:04:05;102057.44;;;12.93;48.98
72857;BME280;62742;52.136;4.500;2023-04-26T11:06:49;102046.63;;;13.38;46.24
72857;BME280;62742;52.136;4.500;2023-04-26T11:09:31;102051.75;;;13.55;45.68
72857;BME280;62742;52.136;4.500;2023-04-26T11:12:16;102042.47;;;12.98;44.83
72857;BME280;62742;52.136;4.500;2023-04-26T11:14:43;102043.34;;;12.97;46.76
72857;BME280;62742;52.136;4.500;2023-04-26T11:17:13;102044.38;;;12.67;47.51
72857;BME280;62742;52.136;4.500;2023-04-26T11:19:40;102046.69;;;13.22;46.68
72857;BME280;62742;52.136;4.500;2023-04-26T11:22:06;102046.75;;;13.13;44.10
72857;BME280;62742;52.136;4.500;2023-04-26T11:24:33;102039.53;;;13.43;45.81
72857;BME280;62742;52.136;4.500;2023-04-26T11:27:06;102040.00;;;13.88;44.44
72857;BME280;62742;52.136;4.500;2023-04-26T11:29:34;102031.03;;;14.03;45.50
72857;BME280;62742;52.136;4.500;2023-04-26T11:32:01;102042.59;;;13.91;44.52
72857;BME280;62742;52.136;4.500;2023-04-26T11:34:31;102030.28;;;13.90;42.85
72857;BME280;62742;52.136;4.500;2023-04-26T11:37:00;102039.47;;;14.36;44.51
72857;BME280;62742;52.136;4.500;2023-04-26T11:39:30;102033.19;;;14.45;42.86
72857;BME280;62742;52.136;4.500;2023-04-26T11:42:07;102027.34;;;14.18;41.27
72857;BME280;62742;52.136;4.500;2023-04-26T11:44:35;102033.06;;;13.76;42.78
72857;BME280;62742;52.136;4.500;2023-04-26T11:47:05;102017.88;;;13.98;41.44
72857;BME280;62742;52.136;4.500;2023-04-26T11:49:33;102030.84;;;13.24;42.30
72857;BME280;62742;52.136;4.500;2023-04-26T11:52:04;102038.97;;;12.93;41.11
72857;BME280;62742;52.136;4.500;2023-04-26T11:54:34;102034.34;;;13.27;42.91
72857;BME280;62742;52.136;4.500;2023-04-26T11:57:13;102041.31;;;13.41;42.00
72857;BME280;62742;52.136;4.500;2023-04-26T11:59:40;102035.06;;;13.51;39.99
72857;BME280;62742;52.136;4.500;2023-04-26T12:02:07;102035.66;;;13.84;41.79
72857;BME280;62742;52.136;4.500;2023-04-26T12:04:36;102042.19;;;13.38;41.78
72857;BME280;62742;52.136;4.500;2023-04-26T12:07:04;102037.22;;;12.87;46.59
72857;BME280;62742;52.136;4.500;2023-04-26T12:09:31;102042.28;;;13.24;43.15
72857;BME280;62742;52.136;4.500;2023-04-26T12:11:58;102039.97;;;13.90;45.61
72857;BME280;62742;52.136;4.500;2023-04-26T12:14:29;102044.84;;;13.37;40.84
72857;BME280;62742;52.136;4.500;2023-04-26T12:16:59;102036.34;;;12.91;41.94
72857;BME280;62742;52.136;4.500;2023-04-26T12:19:28;102036.09;;;14.25;41.66
72857;BME280;62742;52.136;4.500;2023-04-26T12:22:04;102039.50;;;14.33;41.41
72857;BME280;62742;52.136;4.500;2023-04-26T12:24:34;102049.22;;;14.31;39.97
72857;BME280;62742;52.136;4.500;2023-04-26T12:27:03;102044.06;;;13.19;39.69
72857;BME280;62742;52.136;4.500;2023-04-26T12:29:34;102040.50;;;13.25;39.51
72857;BME280;62742;52.136;4.500;2023-04-26T12:32:01;102039.09;;;12.65;41.49
72857;BME280;62742;52.136;4.500;2023-04-26T12:34:28;102046.75;;;13.10;41.52
72857;BME280;62742;52.136;4.500;2023-04-26T12:36:55;102038.44;;;13.67;43.21
72857;BME280;62742;52.136;4.500;2023-04-26T12:39:22;102038.13;;;13.98;40.59
72857;BME280;62742;52.136;4.500;2023-04-26T12:41:48;102034.72;;;14.67;41.84
72857;BME280;62742;52.136;4.500;2023-04-26T12:44:14;102031.78;;;14.86;40.31
72857;BME280;62742;52.136;4.500;2023-04-26T12:46:42;102036.44;;;13.94;41.54
72857;BME280;62742;52.136;4.500;2023-04-26T12:49:08;102040.97;;;13.79;43.01
72857;BME280;62742;52.136;4.500;2023-04-26T12:51:34;102045.75;;;13.36;44.36
72857;BME280;62742;52.136;4.500;2023-04-26T12:54:00;102040.91;;;13.86;41.04
72857;BME280;62742;52.136;4.500;2023-04-26T12:56:27;102045.53;;;13.60;41.15
72857;BME280;62742;52.136;4.500;2023-04-26T12:58:54;102045.41;;;13.74;42.70
72857;BME280;62742;52.136;4.500;2023-04-26T13:01:20;102041.13;;;13.59;43.06
72857;BME280;62742;52.136;4.500;2023-04-26T13:03:46;102053.63;;;13.42;43.43
72857;BME280;62742;52.136;4.500;2023-04-26T13:06:22;102052.22;;;13.97;40.25
72857;BME280;62742;52.136;4.500;2023-04-26T13:08:48;102051.91;;;14.28;40.40
72857;BME280;62742;52.136;4.500;2023-04-26T13:11:15;102043.53;;;14.66;41.37
72857;BME280;62742;52.136;4.500;2023-04-26T13:13:41;102045.50;;;15.14;38.75
72857;BME280;62742;52.136;4.500;2023-04-26T13:16:07;102054.78;;;14.82;43.51